PROFILE

 METAR AND TAF INFORMATION
ADDS - METARS form results

(0413 UTC 25 April 2019)
http://aviationweather.gov/metar/data/
 
TAF GLRB 242200Z 2500/2606 00000KT 9999 BKN013 FEW023CB TEMPO 2501/2505 06008KT 8000 TSRA BKN012 FEW023CB TEMPO 2506/2510 02005KT 9000 BKN013 

 AIRPORT MAP

 RUNWAY INFORMATION
Runway 04 Runway length 11000 ft Runway width 150 ft
Runway elevation 29 ft Runway displaced threshold 0 ft Runway heading 31
Runway 22 Runway length 11000 ft Runway width 150 ft
Runway elevation 25 ft Runway displaced threshold 1200 ft Runway heading 211

 AIRPORT FREQUENCIES
Type A/G Name A/G VOICE Frequency 345.2 MHZ
Type APP Name ROBERTS AP Frequency 124.5 MHZ
Type GND Name GND Frequency 121.9 MHZ
Type TWR Name ROBERTS TW Frequency 118.3 MHZ

 AIRPORT NEAR NAVIGATION AIDS
Type NDB Name Monrovia Roberts Frequency 263 KHZ
Type NDB Name Monrovia Roberts Frequency 372 KHZ
Type VOR-DME Name Monrovia Roberts Frequency 113800 KHZ